sensor_id;sensor_type;location;lat;lon;timestamp;pressure;altitude;pressure_sealevel;temperature;humidity
56042;BME280;48756;41.374;2.066;2023-01-26T00:01:23;101355.63;;;5.28;61.50
56042;BME280;48756;41.374;2.066;2023-01-26T00:03:49;101362.00;;;5.44;60.17
56042;BME280;48756;41.374;2.066;2023-01-26T00:06:16;101345.25;;;5.27;61.01
56042;BME280;48756;41.374;2.066;2023-01-26T00:08:42;101348.28;;;5.48;60.25
56042;BME280;48756;41.374;2.066;2023-01-26T00:11:08;101338.59;;;5.38;61.21
56042;BME280;48756;41.374;2.066;2023-01-26T00:13:34;101339.16;;;5.23;61.95
56042;BME280;48756;41.374;2.066;2023-01-26T00:16:00;101334.72;;;5.19;62.01
56042;BME280;48756;41.374;2.066;2023-01-26T00:18:26;101333.75;;;5.14;62.09
56042;BME280;48756;41.374;2.066;2023-01-26T00:20:58;101334.50;;;5.08;62.48
56042;BME280;48756;41.374;2.066;2023-01-26T00:23:24;101338.16;;;5.18;62.06
56042;BME280;48756;41.374;2.066;2023-01-26T00:25:49;101322.28;;;5.01;62.61
56042;BME280;48756;41.374;2.066;2023-01-26T00:28:15;101327.44;;;5.00;62.22
56042;BME280;48756;41.374;2.066;2023-01-26T00:33:43;101304.38;;;5.09;62.00
56042;BME280;48756;41.374;2.066;2023-01-26T00:36:08;101301.78;;;5.09;62.25
56042;BME280;48756;41.374;2.066;2023-01-26T00:38:34;101296.66;;;5.10;62.07
56042;BME280;48756;41.374;2.066;2023-01-26T00:40:59;101297.34;;;5.02;62.57
56042;BME280;48756;41.374;2.066;2023-01-26T00:43:25;101296.78;;;5.16;62.20
56042;BME280;48756;41.374;2.066;2023-01-26T00:45:50;101287.16;;;5.09;61.53
56042;BME280;48756;41.374;2.066;2023-01-26T00:48:16;101289.78;;;5.11;61.96
56042;BME280;48756;41.374;2.066;2023-01-26T00:50:41;101288.09;;;5.13;62.23
56042;BME280;48756;41.374;2.066;2023-01-26T00:53:07;101277.59;;;5.04;62.25
56042;BME280;48756;41.374;2.066;2023-01-26T00:55:32;101270.44;;;4.93;62.80
56042;BME280;48756;41.374;2.066;2023-01-26T00:58:01;101278.66;;;5.15;61.80
56042;BME280;48756;41.374;2.066;2023-01-26T01:00:27;101281.28;;;5.16;62.10
56042;BME280;48756;41.374;2.066;2023-01-26T01:02:52;101284.69;;;5.14;62.08
56042;BME280;48756;41.374;2.066;2023-01-26T01:05:20;101277.66;;;5.08;61.66
56042;BME280;48756;41.374;2.066;2023-01-26T01:07:45;101277.59;;;5.04;62.55
56042;BME280;48756;41.374;2.066;2023-01-26T01:10:11;101279.63;;;5.20;60.94
56042;BME280;48756;41.374;2.066;2023-01-26T01:12:36;101273.31;;;5.06;62.27
56042;BME280;48756;41.374;2.066;2023-01-26T01:15:02;101272.66;;;5.16;61.74
56042;BME280;48756;41.374;2.066;2023-01-26T01:17:27;101274.44;;;5.18;60.83
56042;BME280;48756;41.374;2.066;2023-01-26T01:19:52;101271.94;;;5.21;61.90
56042;BME280;48756;41.374;2.066;2023-01-26T01:22:18;101263.47;;;5.29;60.17
56042;BME280;48756;41.374;2.066;2023-01-26T01:24:43;101268.44;;;5.19;60.61
56042;BME280;48756;41.374;2.066;2023-01-26T01:27:09;101266.91;;;5.29;60.49
56042;BME280;48756;41.374;2.066;2023-01-26T01:29:34;101268.06;;;5.01;60.75
56042;BME280;48756;41.374;2.066;2023-01-26T01:32:00;101267.78;;;5.30;60.74
56042;BME280;48756;41.374;2.066;2023-01-26T01:34:25;101260.38;;;5.04;61.50
56042;BME280;48756;41.374;2.066;2023-01-26T01:36:51;101259.72;;;5.14;61.33
56042;BME280;48756;41.374;2.066;2023-01-26T01:39:19;101252.06;;;5.19;60.67
56042;BME280;48756;41.374;2.066;2023-01-26T01:41:44;101256.28;;;5.15;61.23
56042;BME280;48756;41.374;2.066;2023-01-26T01:44:23;101253.69;;;5.14;61.18
56042;BME280;48756;41.374;2.066;2023-01-26T01:46:52;101255.88;;;4.97;60.74
56042;BME280;48756;41.374;2.066;2023-01-26T01:49:20;101254.28;;;5.01;60.71
56042;BME280;48756;41.374;2.066;2023-01-26T01:54:33;101258.69;;;5.06;61.74
56042;BME280;48756;41.374;2.066;2023-01-26T01:57:02;101259.66;;;5.11;60.91
56042;BME280;48756;41.374;2.066;2023-01-26T01:59:30;101269.69;;;4.98;61.07
56042;BME280;48756;41.374;2.066;2023-01-26T02:01:56;101274.41;;;5.17;60.51
56042;BME280;48756;41.374;2.066;2023-01-26T02:04:22;101263.94;;;5.11;60.75
56042;BME280;48756;41.374;2.066;2023-01-26T02:06:49;101262.28;;;5.14;60.72
56042;BME280;48756;41.374;2.066;2023-01-26T02:09:16;101257.16;;;5.16;60.67
56042;BME280;48756;41.374;2.066;2023-01-26T02:12:01;101255.28;;;5.09;60.75
56042;BME280;48756;41.374;2.066;2023-01-26T02:14:27;101247.44;;;5.03;59.93
56042;BME280;48756;41.374;2.066;2023-01-26T02:16:53;101249.09;;;5.01;60.78
56042;BME280;48756;41.374;2.066;2023-01-26T02:21:56;101256.69;;;4.55;62.29
56042;BME280;48756;41.374;2.066;2023-01-26T02:24:25;101259.13;;;4.49;63.90
56042;BME280;48756;41.374;2.066;2023-01-26T02:26:53;101240.94;;;4.45;63.35
56042;BME280;48756;41.374;2.066;2023-01-26T02:29:19;101246.63;;;4.30;64.09
56042;BME280;48756;41.374;2.066;2023-01-26T02:31:45;101248.81;;;4.51;63.26
56042;BME280;48756;41.374;2.066;2023-01-26T02:34:10;101257.63;;;4.23;63.93
56042;BME280;48756;41.374;2.066;2023-01-26T02:36:36;101254.19;;;4.58;64.19
56042;BME280;48756;41.374;2.066;2023-01-26T02:41:36;101255.03;;;4.23;65.40
56042;BME280;48756;41.374;2.066;2023-01-26T02:44:20;101254.44;;;3.98;65.26
56042;BME280;48756;41.374;2.066;2023-01-26T02:46:45;101248.56;;;3.71;67.95
56042;BME280;48756;41.374;2.066;2023-01-26T02:49:11;101248.25;;;3.92;66.47
56042;BME280;48756;41.374;2.066;2023-01-26T02:51:55;101250.78;;;3.90;66.27
56042;BME280;48756;41.374;2.066;2023-01-26T02:54:20;101245.34;;;3.80;67.16
56042;BME280;48756;41.374;2.066;2023-01-26T02:57:04;101238.47;;;3.80;66.81
56042;BME280;48756;41.374;2.066;2023-01-26T02:59:30;101240.72;;;4.01;66.62
56042;BME280;48756;41.374;2.066;2023-01-26T03:01:55;101222.72;;;4.03;65.61
56042;BME280;48756;41.374;2.066;2023-01-26T03:04:21;101234.13;;;4.11;65.34
56042;BME280;48756;41.374;2.066;2023-01-26T03:06:47;101229.38;;;3.93;65.98
56042;BME280;48756;41.374;2.066;2023-01-26T03:09:12;101222.72;;;4.03;66.90
56042;BME280;48756;41.374;2.066;2023-01-26T03:11:37;101230.94;;;3.86;66.75
56042;BME280;48756;41.374;2.066;2023-01-26T03:14:07;101217.16;;;3.86;66.63
56042;BME280;48756;41.374;2.066;2023-01-26T03:16:32;101214.16;;;3.69;67.91
56042;BME280;48756;41.374;2.066;2023-01-26T03:18:57;101215.09;;;3.73;67.01
56042;BME280;48756;41.374;2.066;2023-01-26T03:21:29;101209.19;;;3.77;66.42
56042;BME280;48756;41.374;2.066;2023-01-26T03:24:13;101206.44;;;3.71;67.55
56042;BME280;48756;41.374;2.066;2023-01-26T03:26:58;101195.22;;;4.03;67.39
56042;BME280;48756;41.374;2.066;2023-01-26T03:29:42;101200.50;;;3.73;67.27
56042;BME280;48756;41.374;2.066;2023-01-26T03:32:07;101196.88;;;3.65;67.94
56042;BME280;48756;41.374;2.066;2023-01-26T03:34:32;101196.44;;;3.83;67.62
56042;BME280;48756;41.374;2.066;2023-01-26T03:36:58;101186.66;;;3.69;67.06
56042;BME280;48756;41.374;2.066;2023-01-26T03:39:23;101174.72;;;3.73;67.40
56042;BME280;48756;41.374;2.066;2023-01-26T03:42:07;101185.00;;;3.72;67.32
56042;BME280;48756;41.374;2.066;2023-01-26T03:44:51;101175.34;;;3.97;66.51
56042;BME280;48756;41.374;2.066;2023-01-26T03:47:35;101173.53;;;3.93;67.50
56042;BME280;48756;41.374;2.066;2023-01-26T03:50:20;101172.34;;;3.81;66.86
56042;BME280;48756;41.374;2.066;2023-01-26T03:53:17;101166.34;;;3.82;67.87
56042;BME280;48756;41.374;2.066;2023-01-26T03:56:03;101164.47;;;3.75;66.77
56042;BME280;48756;41.374;2.066;2023-01-26T03:58:55;101157.03;;;3.87;67.26
56042;BME280;48756;41.374;2.066;2023-01-26T04:01:21;101161.00;;;3.74;67.49
56042;BME280;48756;41.374;2.066;2023-01-26T04:03:52;101148.22;;;3.79;67.67
56042;BME280;48756;41.374;2.066;2023-01-26T04:06:36;101143.13;;;3.82;67.08
56042;BME280;48756;41.374;2.066;2023-01-26T04:09:21;101135.59;;;3.88;67.56
56042;BME280;48756;41.374;2.066;2023-01-26T04:11:47;101140.25;;;3.68;68.69
56042;BME280;48756;41.374;2.066;2023-01-26T04:14:13;101124.09;;;3.75;67.61
56042;BME280;48756;41.374;2.066;2023-01-26T04:16:57;101126.19;;;3.90;67.24
56042;BME280;48756;41.374;2.066;2023-01-26T04:19:42;101130.81;;;3.68;68.72
56042;BME280;48756;41.374;2.066;2023-01-26T04:22:26;101127.94;;;3.58;69.48
56042;BME280;48756;41.374;2.066;2023-01-26T04:24:51;101126.09;;;3.52;69.35
56042;BME280;48756;41.374;2.066;2023-01-26T04:27:17;101119.78;;;3.40;69.64
56042;BME280;48756;41.374;2.066;2023-01-26T04:29:42;101121.00;;;3.55;68.72
56042;BME280;48756;41.374;2.066;2023-01-26T04:32:07;101117.59;;;3.56;68.49
56042;BME280;48756;41.374;2.066;2023-01-26T04:34:33;101125.00;;;3.43;69.17
56042;BME280;48756;41.374;2.066;2023-01-26T04:36:58;101122.28;;;3.38;70.41
56042;BME280;48756;41.374;2.066;2023-01-26T04:39:24;101126.72;;;3.42;69.84
56042;BME280;48756;41.374;2.066;2023-01-26T04:41:49;101113.03;;;3.45;69.91
56042;BME280;48756;41.374;2.066;2023-01-26T04:44:17;101111.25;;;3.42;70.18
56042;BME280;48756;41.374;2.066;2023-01-26T04:46:43;101103.53;;;3.42;69.92
56042;BME280;48756;41.374;2.066;2023-01-26T04:49:10;101101.69;;;3.38;71.01
56042;BME280;48756;41.374;2.066;2023-01-26T04:51:35;101088.22;;;3.48;70.76
56042;BME280;48756;41.374;2.066;2023-01-26T04:54:00;101092.75;;;3.58;69.09
56042;BME280;48756;41.374;2.066;2023-01-26T04:56:27;101097.53;;;3.43;69.81
56042;BME280;48756;41.374;2.066;2023-01-26T04:58:53;101092.63;;;3.54;69.22
56042;BME280;48756;41.374;2.066;2023-01-26T05:01:19;101092.13;;;3.67;69.94
56042;BME280;48756;41.374;2.066;2023-01-26T05:03:44;101106.28;;;3.50;69.28
56042;BME280;48756;41.374;2.066;2023-01-26T05:06:10;101087.94;;;3.37;70.12
56042;BME280;48756;41.374;2.066;2023-01-26T05:08:36;101091.44;;;3.40;70.36
56042;BME280;48756;41.374;2.066;2023-01-26T05:11:01;101084.03;;;3.53;69.32
56042;BME280;48756;41.374;2.066;2023-01-26T05:13:27;101083.91;;;3.47;70.36
56042;BME280;48756;41.374;2.066;2023-01-26T05:15:52;101087.06;;;3.37;70.81
56042;BME280;48756;41.374;2.066;2023-01-26T05:18:18;101079.56;;;3.46;70.10
56042;BME280;48756;41.374;2.066;2023-01-26T05:20:43;101074.22;;;3.38;69.63
56042;BME280;48756;41.374;2.066;2023-01-26T05:23:08;101086.72;;;3.23;71.04
56042;BME280;48756;41.374;2.066;2023-01-26T05:25:34;101079.78;;;3.21;70.88
56042;BME280;48756;41.374;2.066;2023-01-26T05:27:59;101077.00;;;3.13;71.59
56042;BME280;48756;41.374;2.066;2023-01-26T05:30:24;101075.66;;;3.27;71.76
56042;BME280;48756;41.374;2.066;2023-01-26T05:32:50;101081.28;;;3.13;71.31
56042;BME280;48756;41.374;2.066;2023-01-26T05:35:15;101071.81;;;3.12;72.56
56042;BME280;48756;41.374;2.066;2023-01-26T05:37:41;101065.97;;;3.17;71.65
56042;BME280;48756;41.374;2.066;2023-01-26T05:40:07;101073.50;;;3.11;72.21
56042;BME280;48756;41.374;2.066;2023-01-26T05:42:33;101078.59;;;3.08;72.36
56042;BME280;48756;41.374;2.066;2023-01-26T05:44:58;101078.88;;;2.87;73.30
56042;BME280;48756;41.374;2.066;2023-01-26T05:47:23;101075.75;;;2.97;72.95
56042;BME280;48756;41.374;2.066;2023-01-26T05:49:49;101074.47;;;3.15;73.56
56042;BME280;48756;41.374;2.066;2023-01-26T05:52:15;101066.59;;;3.08;73.01
56042;BME280;48756;41.374;2.066;2023-01-26T05:54:41;101066.50;;;3.05;73.22
56042;BME280;48756;41.374;2.066;2023-01-26T05:57:07;101078.34;;;2.99;73.17
56042;BME280;48756;41.374;2.066;2023-01-26T05:59:33;101072.91;;;3.20;72.95
56042;BME280;48756;41.374;2.066;2023-01-26T06:01:58;101083.28;;;3.23;73.05
56042;BME280;48756;41.374;2.066;2023-01-26T06:04:24;101079.78;;;3.21;72.77
56042;BME280;48756;41.374;2.066;2023-01-26T06:06:53;101079.91;;;3.25;73.14
56042;BME280;48756;41.374;2.066;2023-01-26T06:09:18;101079.06;;;3.26;72.50
56042;BME280;48756;41.374;2.066;2023-01-26T06:11:44;101077.53;;;3.34;72.95
56042;BME280;48756;41.374;2.066;2023-01-26T06:14:10;101079.31;;;3.02;72.49
56042;BME280;48756;41.374;2.066;2023-01-26T06:16:35;101073.78;;;3.20;73.18
56042;BME280;48756;41.374;2.066;2023-01-26T06:19:00;101079.25;;;3.34;72.43
56042;BME280;48756;41.374;2.066;2023-01-26T06:21:26;101082.00;;;3.07;72.90
56042;BME280;48756;41.374;2.066;2023-01-26T06:23:51;101079.53;;;3.12;73.68
56042;BME280;48756;41.374;2.066;2023-01-26T06:26:16;101077.91;;;3.15;73.70
56042;BME280;48756;41.374;2.066;2023-01-26T06:28:42;101074.31;;;3.08;73.21
56042;BME280;48756;41.374;2.066;2023-01-26T06:31:07;101081.44;;;2.87;73.67
56042;BME280;48756;41.374;2.066;2023-01-26T06:33:35;101078.72;;;2.81;74.36
56042;BME280;48756;41.374;2.066;2023-01-26T06:36:04;101081.06;;;2.72;74.32
56042;BME280;48756;41.374;2.066;2023-01-26T06:38:30;101077.25;;;2.59;75.80
56042;BME280;48756;41.374;2.066;2023-01-26T06:41:00;101071.19;;;2.57;75.15
56042;BME280;48756;41.374;2.066;2023-01-26T06:43:30;101089.13;;;2.54;75.72
56042;BME280;48756;41.374;2.066;2023-01-26T06:45:56;101071.41;;;2.35;75.73
56042;BME280;48756;41.374;2.066;2023-01-26T06:48:25;101076.56;;;2.35;76.69
56042;BME280;48756;41.374;2.066;2023-01-26T06:50:51;101069.97;;;2.44;75.45
56042;BME280;48756;41.374;2.066;2023-01-26T06:53:24;101061.25;;;2.39;76.67
56042;BME280;48756;41.374;2.066;2023-01-26T06:55:50;101069.72;;;2.35;75.63
56042;BME280;48756;41.374;2.066;2023-01-26T06:58:16;101069.50;;;2.28;77.51
56042;BME280;48756;41.374;2.066;2023-01-26T07:00:41;101074.34;;;2.19;76.45
56042;BME280;48756;41.374;2.066;2023-01-26T07:03:07;101068.91;;;2.08;77.54
56042;BME280;48756;41.374;2.066;2023-01-26T07:05:33;101074.72;;;2.31;76.53
56042;BME280;48756;41.374;2.066;2023-01-26T07:07:59;101065.41;;;2.34;75.73
56042;BME280;48756;41.374;2.066;2023-01-26T07:10:26;101064.53;;;2.34;76.48
56042;BME280;48756;41.374;2.066;2023-01-26T07:12:51;101057.56;;;2.30;76.67
56042;BME280;48756;41.374;2.066;2023-01-26T07:15:17;101064.09;;;2.20;76.48
56042;BME280;48756;41.374;2.066;2023-01-26T07:17:45;101069.91;;;2.13;77.42
56042;BME280;48756;41.374;2.066;2023-01-26T07:20:10;101071.03;;;2.23;77.66
56042;BME280;48756;41.374;2.066;2023-01-26T07:22:36;101073.59;;;2.23;77.23
56042;BME280;48756;41.374;2.066;2023-01-26T07:25:09;101071.66;;;2.44;76.62
56042;BME280;48756;41.374;2.066;2023-01-26T07:27:34;101069.50;;;2.58;75.71
56042;BME280;48756;41.374;2.066;2023-01-26T07:29:59;101070.00;;;2.46;75.96
56042;BME280;48756;41.374;2.066;2023-01-26T07:32:25;101065.31;;;2.61;75.34
56042;BME280;48756;41.374;2.066;2023-01-26T07:34:50;101073.69;;;2.54;77.40
56042;BME280;48756;41.374;2.066;2023-01-26T07:37:16;101069.75;;;2.37;77.95
56042;BME280;48756;41.374;2.066;2023-01-26T07:39:41;101076.22;;;2.53;76.83
56042;BME280;48756;41.374;2.066;2023-01-26T07:42:08;101067.31;;;2.41;76.95
56042;BME280;48756;41.374;2.066;2023-01-26T07:44:34;101068.66;;;2.59;75.71
56042;BME280;48756;41.374;2.066;2023-01-26T07:46:59;101071.97;;;2.55;75.37
56042;BME280;48756;41.374;2.066;2023-01-26T07:49:24;101073.19;;;2.67;77.86
56042;BME280;48756;41.374;2.066;2023-01-26T07:51:50;101070.94;;;2.78;74.75
56042;BME280;48756;41.374;2.066;2023-01-26T07:54:16;101070.09;;;2.79;74.71
56042;BME280;48756;41.374;2.066;2023-01-26T07:56:42;101069.06;;;2.72;75.43
56042;BME280;48756;41.374;2.066;2023-01-26T07:59:09;101078.47;;;2.72;75.92
56042;BME280;48756;41.374;2.066;2023-01-26T08:01:34;101077.22;;;2.89;75.32
56042;BME280;48756;41.374;2.066;2023-01-26T08:04:00;101072.25;;;2.95;74.96
56042;BME280;48756;41.374;2.066;2023-01-26T08:06:25;101067.34;;;3.04;74.92
56042;BME280;48756;41.374;2.066;2023-01-26T08:08:51;101071.28;;;2.92;75.23
56042;BME280;48756;41.374;2.066;2023-01-26T08:11:18;101073.59;;;3.14;73.74
56042;BME280;48756;41.374;2.066;2023-01-26T08:13:44;101071.91;;;3.16;74.50
56042;BME280;48756;41.374;2.066;2023-01-26T08:16:09;101058.69;;;3.35;73.18
56042;BME280;48756;41.374;2.066;2023-01-26T08:18:38;101068.47;;;3.49;73.10
56042;BME280;48756;41.374;2.066;2023-01-26T08:21:04;101060.84;;;3.53;72.35
56042;BME280;48756;41.374;2.066;2023-01-26T08:23:29;101057.91;;;3.74;71.79
56042;BME280;48756;41.374;2.066;2023-01-26T08:25:59;101061.22;;;3.68;70.93
56042;BME280;48756;41.374;2.066;2023-01-26T08:28:24;101064.13;;;3.84;72.11
56042;BME280;48756;41.374;2.066;2023-01-26T08:30:50;101069.44;;;3.88;70.81
56042;BME280;48756;41.374;2.066;2023-01-26T08:33:15;101057.78;;;4.07;70.52
56042;BME280;48756;41.374;2.066;2023-01-26T08:35:40;101059.63;;;4.11;69.69
56042;BME280;48756;41.374;2.066;2023-01-26T08:38:06;101057.56;;;4.36;69.38
56042;BME280;48756;41.374;2.066;2023-01-26T08:40:31;101056.84;;;4.43;69.33
56042;BME280;48756;41.374;2.066;2023-01-26T08:42:58;101049.78;;;4.33;69.53
56042;BME280;48756;41.374;2.066;2023-01-26T08:45:23;101044.47;;;4.26;70.09
56042;BME280;48756;41.374;2.066;2023-01-26T08:47:49;101056.53;;;4.27;69.56
56042;BME280;48756;41.374;2.066;2023-01-26T08:50:15;101048.53;;;4.15;69.15
56042;BME280;48756;41.374;2.066;2023-01-26T08:52:40;101049.66;;;4.28;69.47
56042;BME280;48756;41.374;2.066;2023-01-26T08:55:06;101049.09;;;4.41;69.66
56042;BME280;48756;41.374;2.066;2023-01-26T08:57:31;101054.13;;;4.79;68.16
56042;BME280;48756;41.374;2.066;2023-01-26T08:59:57;101045.78;;;4.93;66.47
56042;BME280;48756;41.374;2.066;2023-01-26T09:02:22;101049.09;;;4.86;67.45
56042;BME280;48756;41.374;2.066;2023-01-26T09:04:47;101037.41;;;5.05;67.53
56042;BME280;48756;41.374;2.066;2023-01-26T09:07:13;101038.94;;;4.96;66.58
56042;BME280;48756;41.374;2.066;2023-01-26T09:09:38;101034.75;;;5.01;67.10
56042;BME280;48756;41.374;2.066;2023-01-26T09:12:04;101058.72;;;4.95;65.82
56042;BME280;48756;41.374;2.066;2023-01-26T09:14:29;101032.31;;;5.10;65.69
56042;BME280;48756;41.374;2.066;2023-01-26T09:16:55;101047.59;;;5.46;65.09
56042;BME280;48756;41.374;2.066;2023-01-26T09:19:20;101047.63;;;5.49;63.88
56042;BME280;48756;41.374;2.066;2023-01-26T09:21:45;101037.28;;;5.47;64.05
56042;BME280;48756;41.374;2.066;2023-01-26T09:24:11;101046.53;;;5.36;63.94
56042;BME280;48756;41.374;2.066;2023-01-26T09:26:36;101039.69;;;5.90;62.80
56042;BME280;48756;41.374;2.066;2023-01-26T09:29:01;101044.09;;;5.98;62.57
56042;BME280;48756;41.374;2.066;2023-01-26T09:31:27;101040.88;;;6.14;62.01
56042;BME280;48756;41.374;2.066;2023-01-26T09:33:53;101040.91;;;6.18;61.69
56042;BME280;48756;41.374;2.066;2023-01-26T09:36:18;101042.41;;;6.02;61.62
56042;BME280;48756;41.374;2.066;2023-01-26T09:38:44;101047.09;;;6.30;61.54
56042;BME280;48756;41.374;2.066;2023-01-26T09:43:37;101049.31;;;6.01;61.36
56042;BME280;48756;41.374;2.066;2023-01-26T09:46:16;101054.00;;;6.30;60.82
56042;BME280;48756;41.374;2.066;2023-01-26T09:48:47;101054.25;;;6.48;60.72
56042;BME280;48756;41.374;2.066;2023-01-26T09:53:44;101055.09;;;6.45;60.16
56042;BME280;48756;41.374;2.066;2023-01-26T09:56:22;101056.03;;;6.55;60.36
56042;BME280;48756;41.374;2.066;2023-01-26T10:04:14;101062.50;;;6.18;61.20
56042;BME280;48756;41.374;2.066;2023-01-26T10:06:43;101055.81;;;6.34;60.49
56042;BME280;48756;41.374;2.066;2023-01-26T10:09:31;101061.94;;;6.40;60.20
56042;BME280;48756;41.374;2.066;2023-01-26T10:11:58;101057.53;;;6.35;60.56
56042;BME280;48756;41.374;2.066;2023-01-26T10:14:32;101060.78;;;6.90;58.97
56042;BME280;48756;41.374;2.066;2023-01-26T10:17:00;101050.38;;;6.85;59.07
56042;BME280;48756;41.374;2.066;2023-01-26T10:19:35;101046.25;;;7.02;58.76
56042;BME280;48756;41.374;2.066;2023-01-26T10:22:25;101049.56;;;6.92;57.81
56042;BME280;48756;41.374;2.066;2023-01-26T10:24:51;101035.22;;;7.26;57.24
56042;BME280;48756;41.374;2.066;2023-01-26T10:27:19;101039.41;;;7.11;58.30
56042;BME280;48756;41.374;2.066;2023-01-26T10:29:44;101030.94;;;7.30;57.23
56042;BME280;48756;41.374;2.066;2023-01-26T10:32:13;101034.16;;;7.04;57.83
56042;BME280;48756;41.374;2.066;2023-01-26T10:34:39;101027.41;;;7.23;57.44
56042;BME280;48756;41.374;2.066;2023-01-26T10:37:25;101018.19;;;7.56;57.03
56042;BME280;48756;41.374;2.066;2023-01-26T10:42:28;101026.00;;;7.62;55.58
56042;BME280;48756;41.374;2.066;2023-01-26T10:44:54;101024.31;;;7.68;55.86
56042;BME280;48756;41.374;2.066;2023-01-26T10:47:19;101021.75;;;7.70;56.14
56042;BME280;48756;41.374;2.066;2023-01-26T10:49:46;101012.50;;;8.15;55.13
56042;BME280;48756;41.374;2.066;2023-01-26T10:52:22;101006.38;;;8.05;55.30
56042;BME280;48756;41.374;2.066;2023-01-26T10:57:36;101000.59;;;8.63;53.79
56042;BME280;48756;41.374;2.066;2023-01-26T11:00:04;100995.34;;;8.52;53.28
56042;BME280;48756;41.374;2.066;2023-01-26T11:02:32;100988.38;;;8.34;53.51
56042;BME280;48756;41.374;2.066;2023-01-26T11:05:03;100997.06;;;8.42;52.77
56042;BME280;48756;41.374;2.066;2023-01-26T11:09:57;100981.59;;;8.97;51.23
56042;BME280;48756;41.374;2.066;2023-01-26T11:12:40;100970.34;;;8.95;51.96
56042;BME280;48756;41.374;2.066;2023-01-26T11:15:10;100964.28;;;8.98;51.77
56042;BME280;48756;41.374;2.066;2023-01-26T11:17:44;100959.06;;;8.92;51.39
56042;BME280;48756;41.374;2.066;2023-01-26T11:23:02;100953.81;;;8.58;52.29
56042;BME280;48756;41.374;2.066;2023-01-26T11:38:40;100932.16;;;9.47;50.50
56042;BME280;48756;41.374;2.066;2023-01-26T12:00:04;100902.56;;;9.97;49.07
56042;BME280;48756;41.374;2.066;2023-01-26T12:02:41;100907.84;;;9.74;48.51
56042;BME280;48756;41.374;2.066;2023-01-26T12:05:17;100909.63;;;9.59;48.72
56042;BME280;48756;41.374;2.066;2023-01-26T12:07:46;100910.44;;;9.77;47.99
56042;BME280;48756;41.374;2.066;2023-01-26T12:10:19;100911.38;;;9.54;48.83
56042;BME280;48756;41.374;2.066;2023-01-26T12:12:48;100906.00;;;9.93;48.13
56042;BME280;48756;41.374;2.066;2023-01-26T12:15:20;100893.09;;;9.73;48.55
56042;BME280;48756;41.374;2.066;2023-01-26T12:20:22;100888.66;;;9.94;47.94
56042;BME280;48756;41.374;2.066;2023-01-26T12:22:57;100877.34;;;10.05;47.55
56042;BME280;48756;41.374;2.066;2023-01-26T12:32:59;100859.97;;;10.07;46.53
56042;BME280;48756;41.374;2.066;2023-01-26T12:38:04;100838.81;;;10.58;47.46
56042;BME280;48756;41.374;2.066;2023-01-26T12:45:43;100817.44;;;10.08;46.79
56042;BME280;48756;41.374;2.066;2023-01-26T12:48:19;100813.91;;;10.19;47.87
56042;BME280;48756;41.374;2.066;2023-01-26T12:50:47;100813.88;;;10.28;47.22
56042;BME280;48756;41.374;2.066;2023-01-26T12:53:22;100806.88;;;10.36;46.65
56042;BME280;48756;41.374;2.066;2023-01-26T12:58:18;100808.75;;;10.11;46.99
56042;BME280;48756;41.374;2.066;2023-01-26T13:00:52;100815.66;;;10.24;46.83
56042;BME280;48756;41.374;2.066;2023-01-26T13:03:23;100805.88;;;10.52;46.13
56042;BME280;48756;41.374;2.066;2023-01-26T13:06:16;100798.91;;;10.56;46.83
56042;BME280;48756;41.374;2.066;2023-01-26T13:08:47;100794.22;;;10.94;46.84
56042;BME280;48756;41.374;2.066;2023-01-26T13:11:39;100783.66;;;11.03;46.44
56042;BME280;48756;41.374;2.066;2023-01-26T13:14:00;100792.25;;;11.15;45.37
56042;BME280;48756;41.374;2.066;2023-01-26T13:16:34;100787.97;;;11.11;45.18
56042;BME280;48756;41.374;2.066;2023-01-26T13:19:01;100778.38;;;11.13;45.53
56042;BME280;48756;41.374;2.066;2023-01-26T13:29:32;100761.78;;;11.18;45.35
56042;BME280;48756;41.374;2.066;2023-01-26T13:34:36;100748.28;;;11.53;44.28
56042;BME280;48756;41.374;2.066;2023-01-26T13:37:18;100751.78;;;11.52;43.90
56042;BME280;48756;41.374;2.066;2023-01-26T13:39:47;100744.75;;;11.60;43.89
56042;BME280;48756;41.374;2.066;2023-01-26T13:42:19;100742.09;;;11.63;43.71
56042;BME280;48756;41.374;2.066;2023-01-26T13:44:49;100746.69;;;11.43;45.10
56042;BME280;48756;41.374;2.066;2023-01-26T13:47:17;100737.56;;;11.75;44.19
56042;BME280;48756;41.374;2.066;2023-01-26T13:49:48;100731.66;;;11.62;43.78
56042;BME280;48756;41.374;2.066;2023-01-26T13:54:40;100728.53;;;11.37;44.76
56042;BME280;48756;41.374;2.066;2023-01-26T13:57:09;100728.38;;;11.48;44.88
56042;BME280;48756;41.374;2.066;2023-01-26T13:59:46;100720.69;;;11.39;45.63
56042;BME280;48756;41.374;2.066;2023-01-26T14:02:20;100718.75;;;11.51;44.92
56042;BME280;48756;41.374;2.066;2023-01-26T14:04:49;100718.66;;;11.59;44.96
56042;BME280;48756;41.374;2.066;2023-01-26T14:07:15;100706.66;;;11.46;44.25
56042;BME280;48756;41.374;2.066;2023-01-26T14:09:45;100705.97;;;11.30;44.70
56042;BME280;48756;41.374;2.066;2023-01-26T14:12:21;100697.28;;;11.29;44.76
56042;BME280;48756;41.374;2.066;2023-01-26T14:14:49;100687.81;;;11.24;45.94
56042;BME280;48756;41.374;2.066;2023-01-26T14:17:29;100697.38;;;11.25;46.39
56042;BME280;48756;41.374;2.066;2023-01-26T14:19:55;100705.16;;;11.28;48.00
56042;BME280;48756;41.374;2.066;2023-01-26T14:22:20;100702.88;;;11.68;48.11
56042;BME280;48756;41.374;2.066;2023-01-26T14:24:46;100695.25;;;11.51;48.57
56042;BME280;48756;41.374;2.066;2023-01-26T14:29:53;100702.13;;;11.60;48.95
56042;BME280;48756;41.374;2.066;2023-01-26T14:32:19;100705.59;;;11.60;48.97
56042;BME280;48756;41.374;2.066;2023-01-26T14:34:50;100698.69;;;11.56;50.10
56042;BME280;48756;41.374;2.066;2023-01-26T14:37:16;100702.34;;;11.43;50.83
56042;BME280;48756;41.374;2.066;2023-01-26T14:39:42;100703.31;;;11.36;51.21
56042;BME280;48756;41.374;2.066;2023-01-26T14:42:17;100711.34;;;11.19;52.41
56042;BME280;48756;41.374;2.066;2023-01-26T14:44:43;100704.25;;;11.32;51.40